Kurgan, Russia
Current Conditions -  °F | °C
As of 7:00 AM on Tuesday 21 Oct 2014 (Local Time) from USTR Reporting Station
Scattered Clouds Scattered Clouds  
Wind Chill: -8°   Ceiling: Unl
Heat Index:   Visibility: 6mi
Dew Point:   Wind: 11mph
Humidity: 85%   Direction: 250°WSW
Pressure: 29.71"   Gusts: NA
Location:  55.45°N, 65.33°E
Report Text: USTR 210200Z 25005MPS 9999 SCT016CB M14/M16 Q1006 TEMPO 2000SHSN BKN007 RMK QFE745/0993 30450553 03////99
Loading
Personal Weather Stations






























Interactive Weather Map
Tropical Storm Tracking
New forecast layout! Learn more

10-Day Weather Forecast

Advertisements
Track Severe Weather on mobile